< < Back
Terminal Aerodrome Forecast


Current Version              Previous Versions:   1  2  3  4  5  6  7  8  9  

Terminal Aerodrome Forecast

185
FTUS42 KGSP 240553 CCA
TAFAND
TAF COR
KAND 240553Z 2406/2506 20010KT P6SM BKN035
      TEMPO 2408/2411 BKN008 OVC015
     FM241600 22015G23KT P6SM BKN020
     FM241700 22014G22KT P6SM SCT027
     FM242200 24008KT P6SM SCT250
     FM250000 24004KT P6SM SCT050=



Latest METAR

404
SAUS70 KWBC 241400 RRF
MTRAND
METAR KAND 241356Z AUTO 24008KT 1/2SM FG OVC002 15/14 A2981 RMK AO2
SLP093 T01500144


USA.gov is the U.S. government's official web portal to all federal, state and local government web resources and services.